Odessa, New York
Current Conditions -  °F | °C
As of 2:53 AM on Wednesday 26 Nov 2014 (Local Time) from KELM Reporting Station
Overcast Overcast  
Wind Chill: 29°   Ceiling: 3300
Heat Index: 35°   Visibility: 10mi
Dew Point: 27°   Wind: 8mph
Humidity: 72%   Direction: 60°ENE
Pressure: 30.19"   Gusts: NA
Location:  42.34°N, 76.79°W
Report Text: KELM 260753Z AUTO 06007KT 10SM OVC033 02/M03 A3019 RMK AO2 SLP228 T00171028
Loading
Personal Weather Stations






























Interactive Weather Map New forecast layout! Learn more

10-Day Weather Forecast

Advertisements
Track Severe Weather on mobile